Pagrindinis puslapis
METAR-TAF:

METAR-TAF

Oro uostai :

Longjyrbienas, Norvegija

platuma: 78-15N, ilguma: 015-28E, Aukštis: 2 m

Dabartinis oras

Ataskaita buvo paskelbta 31 minutes, ne 10:20 UTC
Vėjas 7 kt iš Vakarų
Temperatūra 5°C
Drėgmė 75%
Slėgis 1017 hPa
Matomumas 10 km arba daugiau
Su prošvaistėmis ne aukštis 2200 ft

METAR: ENSB 311020Z 26007KT 9999 BKN022 05/01 Q1017 RMK WIND 1400FT 29002KT

Laikas: 12:51 (10:51 UTC)

Prognozė

Prognozė galioja nuo 31 metu 06 UTC su 01 metu 06 UTC
Vėjas 10 kt iš Pietryčių
Matomumas 10 km arba daugiau
Mažai debesys ne aukštis 500 ft
Su prošvaistėmis ne aukštis 3000 ft
Laikinai
nuo 31 metu 06 UTC su 01 metu 06 UTC
Su prošvaistėmis ne aukštis 1400 ft
Tapsmas
nuo 31 metu 09 UTC su 31 metu 11 UTC
Vėjas 8 kt iš Vakarų/Pietvakarių
Tikimybė 40%
nuo 31 metu 09 UTC su 01 metu 06 UTC
Matomumas: 4000 m
Su prošvaistėmis ne aukštis 600 ft
lietus, dulksna

TAF: ENSB 3106/0106 13010KT 9999 FEW005 BKN030 TEMPO 3106/0106 BKN014 BECMG 3109/3111 25008KT PROB40 3109/0106 4000 RADZ BKN006

Orai ataskaitas ir orų prognozės (METAR, TAF).

turimą stotys yra geltonos ir raudonos taškus žemėlapyje.

Perkelti pele per norėdami pamatyti stoties vardą.

Tada spustelėkite, norėdami matyti oro stebėjimo ir prognozės.

Norėdami pakeisti žemėlapį: spustelėkite ant žalios mygtukų su juodo kryžiaus žemyn,; žalią mygtuką su brūkšneliu, jei norite nutolinti; arba žalių rodyklių gretimoms žemėlapius.


METAR-TAF: